createdAt,value
2023-02-09T00:00:13.058Z,13.90
2023-02-09T00:05:20.011Z,12.43
2023-02-09T00:10:24.021Z,13.27
2023-02-09T00:15:26.128Z,13.77
2023-02-09T00:20:27.814Z,13.20
2023-02-09T00:25:29.495Z,12.73
2023-02-09T00:30:31.222Z,12.27
2023-02-09T00:35:35.197Z,12.93
2023-02-09T00:40:39.924Z,12.50
2023-02-09T00:45:43.684Z,11.90
2023-02-09T00:50:47.736Z,12.63
2023-02-09T00:55:52.684Z,12.37
2023-02-09T01:00:54.433Z,12.60
2023-02-09T01:05:58.836Z,12.00
2023-02-09T01:11:02.772Z,11.20
2023-02-09T01:16:13.629Z,11.03
2023-02-09T01:21:18.987Z,10.47
2023-02-09T01:26:23.050Z,11.13
2023-02-09T01:31:30.314Z,11.50
2023-02-09T01:36:35.725Z,10.40
2023-02-09T01:41:40.052Z,9.50
2023-02-09T01:46:44.828Z,9.90
2023-02-09T01:52:04.994Z,9.83
2023-02-09T01:57:10.783Z,9.30
2023-02-09T02:02:12.848Z,9.03
2023-02-09T02:07:45.698Z,9.00
2023-02-09T02:12:47.494Z,9.30
2023-02-09T02:18:04.110Z,8.37
2023-02-09T02:23:38.225Z,7.33
2023-02-09T02:29:05.375Z,8.13
2023-02-09T02:34:15.371Z,7.47
2023-02-09T02:39:24.870Z,7.03
2023-02-09T02:44:30.564Z,6.70
2023-02-09T02:50:00.216Z,7.40
2023-02-09T02:55:08.512Z,7.90
2023-02-09T03:00:21.125Z,6.20
2023-02-09T03:05:29.085Z,5.33
2023-02-09T03:10:34.785Z,7.73
2023-02-09T03:16:03.708Z,5.43
2023-02-09T03:21:14.441Z,6.20
2023-02-09T03:26:21.609Z,6.73
2023-02-09T03:31:24.131Z,7.47
2023-02-09T03:36:25.939Z,7.50
2023-02-09T03:41:28.623Z,4.90
2023-02-09T03:46:30.355Z,6.03
2023-02-09T03:51:34.407Z,7.70
2023-02-09T03:56:41.939Z,7.53
2023-02-09T04:01:46.057Z,7.47
2023-02-09T04:06:48.299Z,6.97
2023-02-09T04:11:51.334Z,8.00
2023-02-09T04:16:55.298Z,6.77
2023-02-09T04:22:01.035Z,7.30
2023-02-09T04:27:05.447Z,7.20
2023-02-09T04:32:07.181Z,6.80
2023-02-09T04:37:11.356Z,6.53
2023-02-09T04:42:15.207Z,5.87
2023-02-09T04:47:16.844Z,6.60
2023-02-09T04:52:22.374Z,5.73
2023-02-09T04:57:47.176Z,5.67
2023-02-09T05:02:51.760Z,7.50
2023-02-09T05:07:53.433Z,7.03
2023-02-09T05:12:55.225Z,7.17
2023-02-09T05:17:59.280Z,7.73
2023-02-09T05:23:03.219Z,7.37
2023-02-09T05:28:07.671Z,8.03
2023-02-09T05:33:11.847Z,7.57
2023-02-09T05:38:13.749Z,7.40
2023-02-09T05:43:18.428Z,6.40
2023-02-09T05:48:22.333Z,7.70
2023-02-09T05:53:26.276Z,7.47
2023-02-09T05:58:27.930Z,8.07
2023-02-09T06:03:29.752Z,7.90
2023-02-09T06:08:38.312Z,7.63
2023-02-09T06:13:40.017Z,6.50
2023-02-09T06:18:41.700Z,8.27
2023-02-09T06:23:48.330Z,8.03
2023-02-09T06:28:53.442Z,6.40
2023-02-09T06:33:57.256Z,4.57
2023-02-09T06:39:10.075Z,6.27
2023-02-09T06:44:13.064Z,7.47
2023-02-09T06:49:18.836Z,7.40
2023-02-09T06:54:23.250Z,8.23
2023-02-09T06:59:25.659Z,6.20
2023-02-09T07:04:27.389Z,8.47
2023-02-09T07:09:32.336Z,7.67
2023-02-09T07:14:37.065Z,8.47
2023-02-09T07:19:41.167Z,7.40
2023-02-09T07:24:44.921Z,6.67
2023-02-09T07:29:46.626Z,6.67
2023-02-09T07:34:48.527Z,7.53
2023-02-09T07:39:52.559Z,8.13
2023-02-09T07:44:56.630Z,7.80
2023-02-09T07:50:00.857Z,7.37
2023-02-09T07:55:05.242Z,7.27
2023-02-09T08:00:07.491Z,8.07
2023-02-09T08:05:27.145Z,8.97
2023-02-09T08:10:31.152Z,7.03
2023-02-09T08:15:49.666Z,8.20
2023-02-09T08:20:52.234Z,9.40
2023-02-09T08:25:57.026Z,7.20
2023-02-09T08:31:03.668Z,7.73
2023-02-09T08:36:05.920Z,6.83
2023-02-09T08:41:09.260Z,8.93
2023-02-09T08:46:16.024Z,8.20
2023-02-09T08:51:18.422Z,9.07
2023-02-09T08:56:25.335Z,5.57
2023-02-09T09:01:30.859Z,7.17
2023-02-09T09:06:33.077Z,8.50
2023-02-09T09:11:34.930Z,8.40
2023-02-09T09:16:41.908Z,7.23
2023-02-09T09:21:48.144Z,8.50
2023-02-09T09:26:50.124Z,5.80
2023-02-09T09:31:54.305Z,6.37
2023-02-09T09:37:03.451Z,8.57
2023-02-09T09:42:13.570Z,7.83
2023-02-09T09:47:23.368Z,8.23
2023-02-09T09:52:35.145Z,8.80
2023-02-09T09:57:46.067Z,9.73
2023-02-09T10:02:50.582Z,8.43
2023-02-09T10:08:14.816Z,6.73
2023-02-09T10:13:25.872Z,8.80
2023-02-09T10:18:38.143Z,7.93
2023-02-09T10:23:45.787Z,8.47
2023-02-09T10:28:55.871Z,6.23
2023-02-09T10:34:11.924Z,7.53
2023-02-09T10:39:25.523Z,8.60
2023-02-09T10:44:35.652Z,7.93
2023-02-09T10:49:43.196Z,5.63
2023-02-09T10:54:54.041Z,8.37
2023-02-09T11:00:01.106Z,8.67
2023-02-09T11:05:23.358Z,8.43
2023-02-09T11:10:27.377Z,8.70
2023-02-09T11:15:38.734Z,9.47
2023-02-09T11:20:59.873Z,8.57
2023-02-09T11:26:10.216Z,9.33
2023-02-09T11:31:31.807Z,6.93
2023-02-09T11:36:58.248Z,8.40
2023-02-09T11:42:22.289Z,10.10
2023-02-09T11:47:52.229Z,8.83
2023-02-09T11:53:00.650Z,9.37
2023-02-09T11:58:40.733Z,10.33
2023-02-09T12:03:56.101Z,9.17
2023-02-09T12:09:05.526Z,9.20
2023-02-09T12:14:28.632Z,11.03
2023-02-09T12:19:35.863Z,8.83
2023-02-09T12:24:39.890Z,10.40
2023-02-09T12:29:41.756Z,11.13
2023-02-09T12:34:49.687Z,10.20
2023-02-09T12:40:18.406Z,10.10
2023-02-09T12:45:39.620Z,11.07
2023-02-09T12:50:47.362Z,10.90
2023-02-09T12:56:04.707Z,11.60
2023-02-09T13:01:08.932Z,10.43
2023-02-09T13:06:27.361Z,12.53
2023-02-09T13:11:49.908Z,11.97
2023-02-09T13:17:09.728Z,12.73
2023-02-09T13:22:32.833Z,10.63
2023-02-09T13:27:47.106Z,12.43
2023-02-09T13:33:12.425Z,12.53
2023-02-09T13:38:16.825Z,13.47
2023-02-09T13:43:27.370Z,13.13
2023-02-09T13:48:37.529Z,13.07
2023-02-09T13:53:39.506Z,13.47
2023-02-09T13:58:41.341Z,12.80
2023-02-09T14:03:57.455Z,13.33
2023-02-09T14:09:00.652Z,13.43
2023-02-09T14:14:10.085Z,12.90
2023-02-09T14:19:31.904Z,13.77
2023-02-09T14:24:45.488Z,12.90
2023-02-09T14:29:48.397Z,12.60
2023-02-09T14:34:52.499Z,13.33
2023-02-09T14:40:02.136Z,14.47
2023-02-09T14:45:12.988Z,13.60
2023-02-09T14:50:17.245Z,14.17
2023-02-09T14:55:33.572Z,14.67
2023-02-09T15:00:37.843Z,12.33
2023-02-09T15:05:42.350Z,13.30
2023-02-09T15:10:47.200Z,15.67
2023-02-09T15:15:51.215Z,17.57
2023-02-09T15:20:53.886Z,15.70
2023-02-09T15:25:58.394Z,14.47
2023-02-09T15:31:00.388Z,16.70
2023-02-09T15:36:02.419Z,15.57
2023-02-09T15:41:27.924Z,15.87
2023-02-09T15:46:48.290Z,19.83
2023-02-09T15:51:59.109Z,17.23
2023-02-09T15:57:01.194Z,17.70
2023-02-09T16:02:03.456Z,14.73
2023-02-09T16:07:15.285Z,20.83
2023-02-09T16:12:17.109Z,10.00
2023-02-09T16:17:21.051Z,19.37
2023-02-09T16:22:25.121Z,19.87
2023-02-09T16:27:28.502Z,17.87
2023-02-09T16:32:32.506Z,18.30
2023-02-09T16:37:36.686Z,18.60
2023-02-09T16:42:48.507Z,17.67
2023-02-09T16:47:57.173Z,16.47
2023-02-09T16:53:03.601Z,22.77
2023-02-09T16:58:05.860Z,19.30
2023-02-09T17:03:15.448Z,19.20
2023-02-09T17:08:24.929Z,18.77
2023-02-09T17:13:27.063Z,19.60
2023-02-09T17:18:33.501Z,19.30
2023-02-09T17:23:38.506Z,19.50
2023-02-09T17:28:41.367Z,16.70
2023-02-09T17:33:46.788Z,19.43
2023-02-09T17:38:48.584Z,18.90
2023-02-09T17:43:52.895Z,20.77
2023-02-09T17:48:54.606Z,21.50
2023-02-09T17:54:01.084Z,22.50
2023-02-09T17:59:08.267Z,22.63
2023-02-09T18:04:20.870Z,22.37
2023-02-09T18:09:27.516Z,24.57
2023-02-09T18:14:34.352Z,19.10
2023-02-09T18:19:36.105Z,23.47
2023-02-09T18:24:39.860Z,17.37
2023-02-09T18:29:44.028Z,28.80
2023-02-09T18:34:48.609Z,29.47
2023-02-09T18:39:52.356Z,23.07
2023-02-09T18:44:56.327Z,26.30
2023-02-09T18:50:01.560Z,24.83
2023-02-09T18:55:10.469Z,27.43
2023-02-09T19:00:15.120Z,28.20
2023-02-09T19:05:20.824Z,27.07
2023-02-09T19:10:33.370Z,26.83
2023-02-09T19:15:36.305Z,31.43
2023-02-09T19:20:39.247Z,32.37
2023-02-09T19:25:41.183Z,31.53
2023-02-09T19:30:43.015Z,31.23
2023-02-09T19:35:58.283Z,32.20
2023-02-09T19:41:10.672Z,33.97
2023-02-09T19:46:15.053Z,31.33
2023-02-09T19:51:17.893Z,30.50
2023-02-09T19:56:32.142Z,32.33
2023-02-09T20:01:34.532Z,32.53
2023-02-09T20:06:38.530Z,30.60
2023-02-09T20:11:41.543Z,32.83
2023-02-09T20:16:43.314Z,32.07
2023-02-09T20:21:47.562Z,29.07
2023-02-09T20:26:49.245Z,34.27
2023-02-09T20:31:56.098Z,33.23
2023-02-09T20:36:57.841Z,26.43
2023-02-09T20:42:18.219Z,39.13
2023-02-09T20:47:22.035Z,31.13
2023-02-09T20:52:23.744Z,46.08
2023-02-09T20:57:29.665Z,38.17
2023-02-09T21:02:36.547Z,32.77
2023-02-09T21:07:40.530Z,36.53
2023-02-09T21:12:46.568Z,39.87
2023-02-09T21:17:51.729Z,35.40
2023-02-09T21:22:53.479Z,33.97
2023-02-09T21:27:59.765Z,25.20
2023-02-09T21:33:03.767Z,39.97
2023-02-09T21:38:11.666Z,36.17
2023-02-09T21:43:15.663Z,37.30
2023-02-09T21:48:17.371Z,36.57
2023-02-09T21:53:23.765Z,36.33
2023-02-09T21:58:25.609Z,31.80
2023-02-09T22:03:29.510Z,35.67
2023-02-09T22:08:31.336Z,33.80
2023-02-09T22:13:33.434Z,35.67
2023-02-09T22:18:36.286Z,32.77
2023-02-09T22:23:40.276Z,35.40
2023-02-09T22:28:42.697Z,34.23
2023-02-09T22:33:45.008Z,35.37
2023-02-09T22:38:46.773Z,32.57
2023-02-09T22:43:56.325Z,32.77
2023-02-09T22:49:01.869Z,34.17
2023-02-09T22:54:06.663Z,33.53
2023-02-09T22:59:08.777Z,31.63
2023-02-09T23:04:15.168Z,27.50
2023-02-09T23:09:17.798Z,33.00
2023-02-09T23:14:19.649Z,33.10
2023-02-09T23:19:21.714Z,31.37
2023-02-09T23:24:28.710Z,29.83
2023-02-09T23:29:33.057Z,29.20
2023-02-09T23:34:37.815Z,27.07
2023-02-09T23:39:41.593Z,26.10
2023-02-09T23:44:47.857Z,24.37
2023-02-09T23:49:59.360Z,24.63
2023-02-09T23:55:04.938Z,23.23
